Airfield :
LOGIN :

Register | Disclaimer

   EN    FR    IT 

 










Legend :    VFR   Marginal VFR   IFR   Intensive IFR   Very Intensive IFR
Visi :
Ceiling :
>= 8 km
>= 3000ft
5 to 8 km
1000 to 3000 ft
1500m to 5 km
500 to 1000 ft
800 to 1500m
200 to 500 ft
< 800m
< 200 ft
Symbols :   Thunderstorms  Fog  Heavy snow  Heavy precipitations  Wind > 20 kt
SIGMETs :     Misc.  Thunderstorms  Icing  Turbulence  Mountain Waves  Volcanic Ashes






- Airport Elevation : 286 ft
- IATA code : TRF


ENTO - Sandefjord , Torp

CURRENT METAR :
  • 261150Z 15007KT 130V190 9999 SCT007 BKN017 14/13 Q1019 NOSIG

EXPIRED METARs :
  • 261120Z 15009KT 9999 FEW007 SCT011 BKN017 14/13 Q1019 NOSIG
  • 261050Z 15008KT 9999 SCT013 OVC021 15/13 Q1019 NOSIG
  • 261020Z 20007KT 9999 SCT013 BKN016 14/11 Q1019 NOSIG
  • 260950Z 19008KT 9999 SCT010 SCT013 BKN020 14/12 Q1019 NOSIG
  • 260920Z 17006KT 110V220 9999 BKN007 14/13 Q1019 BECMG SCT007

TAF TAF ENTO
Valid from the 26 at 12:00 until the 27 at 12:00 UTC


2612/2712 VRB03KT 9999 SCT012 BKN030
PROB30
TEMPO 2612/2702 BKN012
TEMPO 2702/2712 4000 DZ BR BKN006



MET'MAP, your aeronautical weather chart ! - Copyright ORBIFLY December 2007 - Disclaimer

ORBIFLY MET'MAP TEAM :

Programming & Development : Alexandra Zaïnal
Concept & original design : Baudouin d'Aumeries
Assistance for programming : Marc-Olivier Méhu
Technical & hardware support : Manuel Goepfert

Contact : metmap@orbifly.com




SOURCES & CREDITS :

   NOAA